Time;durP1;ratioP1;P1;durP2;ratioP2;P2;SDS_P1;SDS_P2;PMS_P1;PMS_P2;Temp;Humidity;BMP_temperature;BMP_pressure;BME280_temperature;BME280_humidity;BME280_pressure;Samples;Min_cycle;Max_cycle;Signal;HPM_P1;HPM_P2
2021/12/30 00:01:56;;;;;;;;;;;7.40;99.90;;;;;;5014866;28;19929;-79
2021/12/30 00:04:24;;;;;;;;;;;7.40;99.90;;;;;;5030241;28;20024;-78
2021/12/30 00:06:53;;;;;;;;;;;7.50;99.90;;;;;;5026878;28;20345;-79
2021/12/30 00:09:20;;;;;;;;;;;7.40;99.90;;;;;;5020342;28;19929;-78
2021/12/30 00:11:47;;;;;;;;;;;7.50;99.90;;;;;;5029416;28;19978;-79
2021/12/30 00:14:14;;;;;;;;;;;7.50;99.90;;;;;;5025477;28;20506;-79
2021/12/30 00:16:42;;;;;;;;;;;7.50;99.90;;;;;;5024396;28;19937;-79
2021/12/30 00:19:09;;;;;;;;;;;7.50;99.90;;;;;;5026843;28;20306;-79
2021/12/30 00:21:36;;;;;;;;;;;7.50;99.90;;;;;;5019951;28;19925;-79
2021/12/30 00:24:05;;;;;;;;;;;7.50;99.90;;;;;;5024406;28;19925;-79
2021/12/30 00:26:32;;;;;;;;;;;7.50;99.90;;;;;;5028024;28;20382;-79
2021/12/30 00:28:59;;;;;;;;;;;7.60;99.90;;;;;;5018583;28;19929;-79
2021/12/30 00:31:26;;;;;;;;;;;7.50;99.90;;;;;;5022238;28;19925;-79
2021/12/30 00:33:53;;;;;;;;;;;7.60;99.90;;;;;;5024085;28;20299;-79
2021/12/30 00:36:20;;;;;;;;;;;7.60;99.90;;;;;;5024892;28;20407;-79
2021/12/30 00:38:47;;;;;;;;;;;7.60;99.90;;;;;;5027571;28;19933;-79
2021/12/30 00:41:15;;;;;;;;;;;7.70;99.90;;;;;;5028773;28;20315;-79
2021/12/30 00:43:42;;;;;;;;;;;7.70;99.90;;;;;;5029457;28;20028;-79
2021/12/30 00:46:09;;;;;;;;;;;7.70;99.90;;;;;;5027828;28;19936;-79
2021/12/30 00:48:36;;;;;;;;;;;7.70;99.90;;;;;;5029973;28;19925;-79
2021/12/30 00:51:03;;;;;;;;;;;7.70;99.90;;;;;;5017904;28;20023;-79
2021/12/30 00:53:30;;;;;;;;;;;7.70;99.90;;;;;;5025027;28;19929;-79
2021/12/30 00:55:57;;;;;;;;;;;7.70;99.90;;;;;;5026489;28;19929;-79
2021/12/30 00:58:26;;;;;;;;;;;7.70;99.90;;;;;;5026959;28;20337;-79
2021/12/30 01:00:53;;;;;;;;;;;7.80;99.90;;;;;;5031258;28;21112;-79
2021/12/30 01:03:20;;;;;;;;;;;7.70;99.90;;;;;;5025074;28;19925;-79
2021/12/30 01:05:47;;;;;;;;;;;7.80;99.90;;;;;;5029249;28;19926;-79
2021/12/30 01:08:15;;;;;;;;;;;7.80;99.90;;;;;;5029171;28;19979;-80
2021/12/30 01:10:42;;;;;;;;;;;7.80;99.90;;;;;;5031253;28;20019;-79
2021/12/30 01:13:16;;;;;;;;;;;7.90;99.90;;;;;;5027278;28;19933;-79
2021/12/30 01:15:56;;;;;;;;;;;7.80;99.90;;;;;;5030589;28;20394;-79
2021/12/30 01:18:34;;;;;;;;;;;7.90;99.90;;;;;;5028555;28;19933;-79
2021/12/30 01:21:01;;;;;;;;;;;7.90;99.90;;;;;;5016467;28;20144;-79
2021/12/30 01:23:28;;;;;;;;;;;7.90;99.90;;;;;;5027965;28;19968;-79
2021/12/30 01:25:56;;;;;;;;;;;7.90;99.90;;;;;;5030228;28;19931;-79
2021/12/30 01:28:23;;;;;;;;;;;8.00;99.90;;;;;;5030937;28;19952;-79
2021/12/30 01:30:52;;;;;;;;;;;8.00;99.90;;;;;;5028346;28;19979;-79
2021/12/30 01:33:19;;;;;;;;;;;8.00;99.90;;;;;;5025909;28;19925;-79
2021/12/30 01:35:46;;;;;;;;;;;8.10;99.90;;;;;;5028334;28;19967;-78
2021/12/30 01:38:16;;;;;;;;;;;8.10;99.90;;;;;;5028581;28;19935;-79
2021/12/30 01:40:43;;;;;;;;;;;8.10;99.90;;;;;;5030499;28;19933;-79
2021/12/30 01:43:11;;;;;;;;;;;8.10;99.90;;;;;;5020616;28;19980;-79
2021/12/30 01:45:38;;;;;;;;;;;8.10;99.90;;;;;;5026383;28;20025;-79
2021/12/30 01:48:07;;;;;;;;;;;8.10;99.90;;;;;;5025648;28;19929;-79
2021/12/30 01:50:35;;;;;;;;;;;8.10;99.90;;;;;;5025025;28;19947;-79
2021/12/30 01:53:03;;;;;;;;;;;8.10;99.90;;;;;;5020063;28;19929;-79
2021/12/30 01:55:30;;;;;;;;;;;8.10;99.90;;;;;;5029206;28;20024;-79
2021/12/30 01:57:57;;;;;;;;;;;8.20;99.90;;;;;;5026489;28;20556;-79
2021/12/30 02:00:26;;;;;;;;;;;8.20;99.90;;;;;;5079619;22;19998;-79
2021/12/30 02:02:53;;;;;;;;;;;8.20;99.90;;;;;;5045746;22;19940;-80
2021/12/30 02:05:22;;;;;;;;;;;8.20;99.90;;;;;;4992176;28;19925;-80
2021/12/30 02:07:49;;;;;;;;;;;8.20;99.90;;;;;;4989367;28;20088;-80
2021/12/30 02:10:16;;;;;;;;;;;8.20;99.90;;;;;;5004038;28;19981;-80
2021/12/30 02:12:43;;;;;;;;;;;8.20;99.90;;;;;;4988266;28;20303;-80
2021/12/30 02:15:11;;;;;;;;;;;8.30;99.90;;;;;;5005754;28;19976;-80
2021/12/30 02:17:38;;;;;;;;;;;8.30;99.90;;;;;;5004807;28;20303;-79
2021/12/30 02:20:09;;;;;;;;;;;8.30;99.90;;;;;;5003925;28;19972;-79
2021/12/30 02:22:36;;;;;;;;;;;8.30;99.90;;;;;;5003893;28;19932;-79
2021/12/30 02:25:04;;;;;;;;;;;8.40;99.90;;;;;;4990657;28;19932;-80
2021/12/30 02:27:31;;;;;;;;;;;8.30;99.90;;;;;;4988201;28;20032;-79
2021/12/30 02:29:58;;;;;;;;;;;8.30;99.90;;;;;;5001539;28;19941;-79
2021/12/30 02:32:25;;;;;;;;;;;8.40;99.90;;;;;;5007041;28;20400;-80
2021/12/30 02:34:52;;;;;;;;;;;8.40;99.90;;;;;;5007144;28;19925;-80
2021/12/30 02:37:21;;;;;;;;;;;8.40;99.90;;;;;;4988463;28;19949;-80
2021/12/30 02:39:52;;;;;;;;;;;8.40;99.90;;;;;;5004478;28;19938;-80
2021/12/30 02:42:20;;;;;;;;;;;8.40;99.90;;;;;;4990752;28;20432;-80
2021/12/30 02:44:48;;;;;;;;;;;8.40;99.90;;;;;;5002362;28;19926;-79
2021/12/30 02:47:15;;;;;;;;;;;8.40;99.90;;;;;;4987273;28;19934;-80
2021/12/30 02:49:42;;;;;;;;;;;8.50;99.90;;;;;;5002745;28;20383;-80
2021/12/30 02:52:09;;;;;;;;;;;8.50;99.90;;;;;;5001949;28;20558;-80
2021/12/30 02:54:40;;;;;;;;;;;8.50;99.90;;;;;;4989007;28;19933;-79
2021/12/30 02:57:07;;;;;;;;;;;8.50;99.90;;;;;;4988880;28;19925;-80
2021/12/30 02:59:34;;;;;;;;;;;8.50;99.90;;;;;;4998732;28;19958;-80
2021/12/30 03:02:01;;;;;;;;;;;8.50;99.90;;;;;;4988121;28;19933;-80
2021/12/30 03:04:29;;;;;;;;;;;8.50;99.90;;;;;;4988108;28;20331;-80
2021/12/30 03:06:56;;;;;;;;;;;8.50;99.90;;;;;;4987595;28;20183;-80
2021/12/30 03:09:24;;;;;;;;;;;8.60;99.90;;;;;;4991549;28;19999;-80
2021/12/30 03:11:52;;;;;;;;;;;8.60;99.90;;;;;;5001896;28;19940;-80
2021/12/30 03:14:22;;;;;;;;;;;8.60;99.90;;;;;;5191969;22;19934;-78
2021/12/30 03:16:49;;;;;;;;;;;8.60;99.90;;;;;;5007809;28;21302;-79
2021/12/30 03:19:16;;;;;;;;;;;8.60;99.90;;;;;;4987809;28;19996;-78
2021/12/30 03:21:43;;;;;;;;;;;8.60;99.90;;;;;;5003808;28;19932;-78
2021/12/30 03:24:09;;;;;;;;;;;8.70;99.90;;;;;;4986830;28;19932;-79
2021/12/30 03:26:36;;;;;;;;;;;8.70;99.90;;;;;;5004214;28;20303;-79
2021/12/30 03:29:05;;;;;;;;;;;8.70;99.90;;;;;;4991330;28;19960;-79
2021/12/30 03:31:32;;;;;;;;;;;8.70;99.90;;;;;;5004294;28;20347;-79
2021/12/30 03:33:59;;;;;;;;;;;8.70;99.90;;;;;;4984081;28;20427;-78
2021/12/30 03:36:26;;;;;;;;;;;8.70;99.90;;;;;;4988130;28;19969;-79
2021/12/30 03:38:54;;;;;;;;;;;8.80;99.90;;;;;;4992982;28;20410;-79
2021/12/30 03:41:22;;;;;;;;;;;8.70;99.90;;;;;;4986429;28;19932;-79
2021/12/30 03:43:49;;;;;;;;;;;8.70;99.90;;;;;;4988949;28;19929;-79
2021/12/30 03:46:18;;;;;;;;;;;8.80;99.90;;;;;;5006211;28;19932;-79
2021/12/30 03:48:45;;;;;;;;;;;8.80;99.90;;;;;;4996142;28;19925;-79
2021/12/30 03:51:20;;;;;;;;;;;8.80;99.90;;;;;;4996269;28;19964;-79
2021/12/30 03:53:49;;;;;;;;;;;8.80;99.90;;;;;;5001191;28;19926;-79
2021/12/30 03:56:16;;;;;;;;;;;8.80;99.90;;;;;;4999346;28;20441;-79
2021/12/30 03:58:44;;;;;;;;;;;8.80;99.90;;;;;;4988398;28;19926;-79
2021/12/30 04:01:12;;;;;;;;;;;8.80;99.90;;;;;;4985857;28;19932;-79
2021/12/30 04:03:40;;;;;;;;;;;8.80;99.90;;;;;;5005070;28;19926;-80
2021/12/30 04:06:07;;;;;;;;;;;8.80;99.90;;;;;;4991753;28;20362;-79
2021/12/30 04:08:35;;;;;;;;;;;8.80;99.90;;;;;;5006611;28;19925;-79
2021/12/30 04:11:02;;;;;;;;;;;8.80;99.90;;;;;;5008293;28;20395;-79
2021/12/30 04:13:29;;;;;;;;;;;8.80;99.90;;;;;;4995272;28;19930;-79
2021/12/30 04:15:56;;;;;;;;;;;8.90;99.90;;;;;;5008891;28;19926;-79
2021/12/30 04:18:23;;;;;;;;;;;8.90;99.90;;;;;;4987235;28;20020;-79
2021/12/30 04:20:51;;;;;;;;;;;8.90;99.90;;;;;;4995036;28;19952;-79
2021/12/30 04:23:18;;;;;;;;;;;8.90;99.90;;;;;;4986369;28;19933;-79
2021/12/30 04:25:45;;;;;;;;;;;8.90;99.90;;;;;;4989207;28;19933;-79
2021/12/30 04:28:12;;;;;;;;;;;8.90;99.90;;;;;;5007424;28;19936;-79
2021/12/30 04:30:39;;;;;;;;;;;8.90;99.90;;;;;;4988477;28;19925;-79
2021/12/30 04:33:06;;;;;;;;;;;8.90;99.90;;;;;;5005533;28;20026;-79
2021/12/30 04:35:33;;;;;;;;;;;8.90;99.90;;;;;;5007055;28;20399;-79
2021/12/30 04:38:01;;;;;;;;;;;8.90;99.90;;;;;;5004678;28;19981;-79
2021/12/30 04:40:28;;;;;;;;;;;8.90;99.90;;;;;;4992893;28;19925;-79
2021/12/30 04:42:55;;;;;;;;;;;9.00;99.90;;;;;;4983802;28;20399;-79
2021/12/30 04:45:22;;;;;;;;;;;9.00;99.90;;;;;;4994378;28;20510;-79
2021/12/30 04:47:49;;;;;;;;;;;9.00;99.90;;;;;;5009824;28;19952;-79
2021/12/30 04:50:16;;;;;;;;;;;9.00;99.90;;;;;;4992979;28;19980;-79
2021/12/30 04:52:43;;;;;;;;;;;9.00;99.90;;;;;;4997540;28;19926;-80
2021/12/30 04:55:12;;;;;;;;;;;9.00;99.90;;;;;;4990816;28;20014;-79
2021/12/30 04:57:39;;;;;;;;;;;9.00;99.90;;;;;;4988210;28;20525;-80
2021/12/30 05:00:07;;;;;;;;;;;9.00;99.90;;;;;;4993800;28;19926;-79
2021/12/30 05:02:51;;;;;;;;;;;9.00;99.90;;;;;;4990774;28;20012;-79
2021/12/30 05:05:18;;;;;;;;;;;9.00;99.90;;;;;;4990904;28;20012;-79
2021/12/30 05:07:45;;;;;;;;;;;9.00;99.90;;;;;;4991033;28;19925;-79
2021/12/30 05:10:13;;;;;;;;;;;9.00;99.90;;;;;;4988980;28;19937;-79
2021/12/30 05:12:40;;;;;;;;;;;9.10;99.90;;;;;;5004901;28;19972;-78
2021/12/30 05:15:07;;;;;;;;;;;9.10;99.90;;;;;;4980029;28;19926;-78
2021/12/30 05:17:35;;;;;;;;;;;9.10;99.90;;;;;;5001472;28;19991;-79
2021/12/30 05:20:02;;;;;;;;;;;9.10;99.90;;;;;;4990151;28;19925;-79
2021/12/30 05:22:30;;;;;;;;;;;9.10;99.90;;;;;;5002677;28;20285;-78
2021/12/30 05:24:57;;;;;;;;;;;9.10;99.90;;;;;;4991839;28;19925;-79
2021/12/30 05:27:25;;;;;;;;;;;9.10;99.90;;;;;;4993393;28;19925;-79
2021/12/30 05:29:52;;;;;;;;;;;9.20;99.90;;;;;;4993058;28;19926;-79
2021/12/30 05:32:19;;;;;;;;;;;9.10;99.90;;;;;;5011094;28;19932;-79
2021/12/30 05:34:46;;;;;;;;;;;9.10;99.90;;;;;;4993534;28;20423;-79
2021/12/30 05:37:13;;;;;;;;;;;9.20;99.90;;;;;;4993224;28;19929;-79
2021/12/30 05:39:42;;;;;;;;;;;9.20;99.90;;;;;;4994665;28;19936;-79
2021/12/30 05:42:09;;;;;;;;;;;9.20;99.90;;;;;;5012137;28;20020;-79
2021/12/30 05:44:37;;;;;;;;;;;9.20;99.90;;;;;;4992431;28;19976;-79
2021/12/30 05:47:04;;;;;;;;;;;9.20;99.90;;;;;;5012668;28;19929;-79
2021/12/30 05:49:31;;;;;;;;;;;9.20;99.90;;;;;;5004321;28;19955;-79
2021/12/30 05:51:58;;;;;;;;;;;9.20;99.90;;;;;;5008538;28;19929;-79
2021/12/30 05:54:25;;;;;;;;;;;9.20;99.90;;;;;;5010344;28;19980;-79
2021/12/30 05:56:52;;;;;;;;;;;9.20;99.90;;;;;;4982640;28;20044;-79
2021/12/30 05:59:19;;;;;;;;;;;9.20;99.90;;;;;;5006878;28;20032;-79
2021/12/30 06:01:47;;;;;;;;;;;9.30;99.90;;;;;;5010766;28;19956;-79
2021/12/30 06:04:14;;;;;;;;;;;9.30;99.90;;;;;;4995968;28;19971;-79
2021/12/30 06:06:41;;;;;;;;;;;9.30;99.90;;;;;;4985627;28;19932;-79
2021/12/30 06:09:08;;;;;;;;;;;9.30;99.90;;;;;;4986772;28;20494;-79
2021/12/30 06:11:35;;;;;;;;;;;9.30;99.90;;;;;;4995466;28;19926;-79
2021/12/30 06:14:02;;;;;;;;;;;9.30;99.90;;;;;;4993545;28;19996;-79
2021/12/30 06:16:29;;;;;;;;;;;9.30;99.90;;;;;;4990016;28;19933;-79
2021/12/30 06:18:59;;;;;;;;;;;9.40;99.90;;;;;;5003474;28;19937;-79
2021/12/30 06:21:26;;;;;;;;;;;9.30;99.90;;;;;;4987588;28;20506;-79
2021/12/30 06:23:53;;;;;;;;;;;9.30;99.90;;;;;;5009212;28;20036;-79
2021/12/30 06:26:20;;;;;;;;;;;9.40;99.90;;;;;;4989726;28;19936;-79
2021/12/30 06:28:47;;;;;;;;;;;9.40;99.90;;;;;;4990600;28;19933;-79
2021/12/30 06:31:14;;;;;;;;;;;9.40;99.90;;;;;;4981249;28;20024;-79
2021/12/30 06:33:40;;;;;;;;;;;9.40;99.90;;;;;;5001168;28;19973;-80
2021/12/30 06:36:10;;;;;;;;;;;9.40;99.90;;;;;;4986278;28;19933;-79
2021/12/30 06:38:37;;;;;;;;;;;9.50;99.90;;;;;;4981319;28;19940;-79
2021/12/30 06:41:04;;;;;;;;;;;9.40;99.90;;;;;;4974857;28;20819;-79
2021/12/30 06:43:31;;;;;;;;;;;9.50;99.90;;;;;;4990341;28;19933;-79
2021/12/30 06:45:58;;;;;;;;;;;9.50;99.90;;;;;;4998231;28;20214;-79
2021/12/30 06:48:25;;;;;;;;;;;9.40;99.90;;;;;;4985020;28;20012;-79
2021/12/30 06:50:53;;;;;;;;;;;9.50;99.90;;;;;;4976944;28;19964;-79
2021/12/30 06:53:22;;;;;;;;;;;9.40;99.90;;;;;;4981251;28;19936;-79
2021/12/30 06:55:50;;;;;;;;;;;9.50;99.90;;;;;;4979811;28;20389;-79
2021/12/30 06:58:18;;;;;;;;;;;9.50;99.90;;;;;;4979324;28;19929;-79
2021/12/30 07:00:45;;;;;;;;;;;9.50;99.90;;;;;;4984829;28;19926;-79
2021/12/30 07:03:12;;;;;;;;;;;9.50;99.90;;;;;;4987284;28;19937;-79
2021/12/30 07:05:40;;;;;;;;;;;9.50;99.90;;;;;;4989371;28;20029;-79
2021/12/30 07:08:07;;;;;;;;;;;9.50;99.90;;;;;;4980254;28;20035;-79
2021/12/30 07:10:35;;;;;;;;;;;9.50;99.90;;;;;;4985684;28;19979;-79
2021/12/30 07:13:02;;;;;;;;;;;9.50;99.90;;;;;;4991095;28;20399;-79
2021/12/30 07:15:30;;;;;;;;;;;9.50;99.90;;;;;;4982210;28;19929;-79
2021/12/30 07:17:57;;;;;;;;;;;9.50;99.90;;;;;;4994153;28;19936;-79
2021/12/30 07:20:24;;;;;;;;;;;9.50;99.90;;;;;;4996501;28;20097;-79
2021/12/30 07:22:51;;;;;;;;;;;9.50;99.90;;;;;;4989044;28;20587;-79
2021/12/30 07:25:18;;;;;;;;;;;9.50;99.90;;;;;;4985051;28;20004;-79
2021/12/30 07:27:47;;;;;;;;;;;9.50;99.90;;;;;;4981380;28;20001;-79
2021/12/30 07:30:14;;;;;;;;;;;9.50;99.90;;;;;;5000936;28;19979;-80
2021/12/30 07:32:41;;;;;;;;;;;9.50;99.90;;;;;;4981568;28;20021;-80
2021/12/30 07:35:10;;;;;;;;;;;9.50;99.90;;;;;;4996532;28;19926;-81
2021/12/30 07:37:37;;;;;;;;;;;9.60;99.90;;;;;;4974601;28;20532;-79
2021/12/30 07:40:04;;;;;;;;;;;9.60;99.90;;;;;;4982802;28;19926;-80
2021/12/30 07:42:31;;;;;;;;;;;9.60;99.90;;;;;;4999185;28;19925;-80
2021/12/30 07:44:59;;;;;;;;;;;9.60;99.90;;;;;;4978322;28;20020;-79
2021/12/30 07:47:26;;;;;;;;;;;9.60;99.90;;;;;;5005478;28;19929;-79
2021/12/30 07:49:53;;;;;;;;;;;9.60;99.90;;;;;;4992064;28;19987;-79
2021/12/30 07:52:20;;;;;;;;;;;9.60;99.90;;;;;;4978789;28;19940;-79
2021/12/30 07:54:47;;;;;;;;;;;9.60;99.90;;;;;;5003221;28;19929;-79
2021/12/30 07:57:20;;;;;;;;;;;9.60;99.90;;;;;;5002821;28;19925;-80
2021/12/30 07:59:48;;;;;;;;;;;9.60;99.90;;;;;;4985410;28;19934;-81
2021/12/30 08:02:16;;;;;;;;;;;9.70;99.90;;;;;;4996651;28;19926;-79
2021/12/30 08:04:43;;;;;;;;;;;9.60;99.90;;;;;;4984419;28;20678;-80
2021/12/30 08:07:11;;;;;;;;;;;9.70;99.90;;;;;;4982792;28;19969;-79
2021/12/30 08:09:38;;;;;;;;;;;9.60;99.90;;;;;;4974058;28;20403;-79
2021/12/30 08:12:05;;;;;;;;;;;9.70;99.90;;;;;;4977023;28;19967;-78
2021/12/30 08:14:32;;;;;;;;;;;9.70;99.90;;;;;;4971211;28;19987;-79
2021/12/30 08:17:00;;;;;;;;;;;9.70;99.90;;;;;;4965711;28;20853;-79
2021/12/30 08:19:28;;;;;;;;;;;9.70;99.90;;;;;;4977387;28;19933;-79
2021/12/30 08:21:55;;;;;;;;;;;9.70;99.90;;;;;;4974904;28;19944;-79
2021/12/30 08:24:22;;;;;;;;;;;9.70;99.90;;;;;;4970530;28;19925;-78
2021/12/30 08:26:49;;;;;;;;;;;9.70;99.90;;;;;;4996015;28;19937;-80
2021/12/30 08:29:16;;;;;;;;;;;9.70;99.90;;;;;;4981854;28;20002;-79
2021/12/30 08:31:43;;;;;;;;;;;9.70;99.90;;;;;;4982677;28;19926;-79
2021/12/30 08:34:10;;;;;;;;;;;9.70;99.90;;;;;;4999310;28;19925;-79
2021/12/30 08:36:42;;;;;;;;;;;9.70;99.90;;;;;;4973805;28;19934;-79
2021/12/30 08:39:09;;;;;;;;;;;9.70;99.90;;;;;;4986770;28;19976;-79
2021/12/30 08:41:36;;;;;;;;;;;9.80;99.90;;;;;;4981668;28;19933;-79
2021/12/30 08:44:03;;;;;;;;;;;9.80;99.90;;;;;;4980007;28;19941;-79
2021/12/30 08:46:29;;;;;;;;;;;9.80;99.90;;;;;;5001142;28;19929;-79
2021/12/30 08:48:57;;;;;;;;;;;9.80;99.90;;;;;;4990422;28;20325;-79
2021/12/30 08:51:24;;;;;;;;;;;9.80;99.90;;;;;;4983394;28;19988;-78
2021/12/30 08:53:56;;;;;;;;;;;9.80;99.90;;;;;;4983418;28;20328;-79
2021/12/30 08:56:24;;;;;;;;;;;9.80;99.90;;;;;;4978062;28;20016;-79
2021/12/30 08:58:51;;;;;;;;;;;9.80;99.90;;;;;;5003783;28;19940;-79
2021/12/30 09:01:18;;;;;;;;;;;9.80;99.90;;;;;;4982842;28;20375;-79
2021/12/30 09:03:45;;;;;;;;;;;9.90;99.90;;;;;;4978227;28;19929;-79
2021/12/30 09:06:12;;;;;;;;;;;9.90;99.90;;;;;;4986837;28;19925;-79
2021/12/30 09:08:39;;;;;;;;;;;9.90;99.90;;;;;;4995107;28;20300;-79
2021/12/30 09:11:07;;;;;;;;;;;9.90;99.90;;;;;;4998105;28;19929;-79
2021/12/30 09:13:34;;;;;;;;;;;9.90;99.90;;;;;;5002488;28;19934;-79
2021/12/30 09:16:02;;;;;;;;;;;9.90;99.90;;;;;;5004478;28;20024;-79
2021/12/30 09:18:29;;;;;;;;;;;9.90;99.90;;;;;;4987313;28;20025;-79
2021/12/30 09:20:59;;;;;;;;;;;9.90;99.90;;;;;;4986704;28;19925;-79
2021/12/30 09:23:26;;;;;;;;;;;9.90;99.90;;;;;;4982933;28;19930;-79
2021/12/30 09:25:56;;;;;;;;;;;9.90;99.90;;;;;;5003241;28;19926;-79
2021/12/30 09:28:24;;;;;;;;;;;10.00;99.90;;;;;;4992265;28;19926;-79
2021/12/30 09:30:54;;;;;;;;;;;10.00;99.90;;;;;;5007684;28;20307;-79
2021/12/30 09:33:22;;;;;;;;;;;10.00;99.90;;;;;;4996233;28;20415;-79
2021/12/30 09:35:48;;;;;;;;;;;10.00;99.90;;;;;;4991526;28;19940;-79
2021/12/30 09:38:16;;;;;;;;;;;10.20;99.90;;;;;;4999823;28;19925;-78
2021/12/30 09:40:45;;;;;;;;;;;10.20;99.90;;;;;;4982503;28;20391;-78
2021/12/30 09:43:13;;;;;;;;;;;10.20;99.90;;;;;;4988014;28;19925;-78
2021/12/30 09:45:42;;;;;;;;;;;10.10;99.90;;;;;;4985151;28;20024;-79
2021/12/30 09:48:10;;;;;;;;;;;10.10;99.90;;;;;;4994639;28;19926;-79
2021/12/30 09:50:39;;;;;;;;;;;10.10;99.90;;;;;;5002894;28;19933;-79
2021/12/30 09:53:06;;;;;;;;;;;10.10;99.90;;;;;;4987261;28;19925;-79
2021/12/30 09:55:37;;;;;;;;;;;10.10;99.90;;;;;;5007924;28;19961;-78
2021/12/30 09:58:04;;;;;;;;;;;10.10;99.90;;;;;;4981368;28;19975;-79
2021/12/30 10:00:32;;;;;;;;;;;10.10;99.90;;;;;;4983314;28;19933;-78
2021/12/30 10:03:00;;;;;;;;;;;10.10;99.90;;;;;;4992273;28;20404;-79
2021/12/30 10:05:28;;;;;;;;;;;10.10;99.90;;;;;;4996610;28;20403;-79
2021/12/30 10:08:07;;;;;;;;;;;10.10;99.90;;;;;;4999753;28;19931;-79
2021/12/30 10:10:39;;;;;;;;;;;10.20;99.90;;;;;;4978621;28;20344;-79
2021/12/30 10:13:16;;;;;;;;;;;10.20;99.90;;;;;;5005157;28;20015;-79
2021/12/30 10:15:44;;;;;;;;;;;10.20;99.90;;;;;;4991555;28;19925;-80
2021/12/30 10:18:13;;;;;;;;;;;10.20;99.90;;;;;;4998633;28;20025;-79
2021/12/30 10:20:42;;;;;;;;;;;10.20;99.90;;;;;;4994973;28;19964;-79
2021/12/30 10:23:10;;;;;;;;;;;10.30;99.90;;;;;;4984416;28;19998;-78
2021/12/30 10:25:38;;;;;;;;;;;10.30;99.90;;;;;;5006649;28;19926;-79
2021/12/30 10:28:25;;;;;;;;;;;10.30;99.90;;;;;;4998453;28;20391;-79
2021/12/30 10:30:54;;;;;;;;;;;10.20;99.90;;;;;;4985099;28;19940;-79
2021/12/30 10:33:23;;;;;;;;;;;10.30;99.90;;;;;;4989618;28;20404;-79
2021/12/30 10:35:51;;;;;;;;;;;10.30;99.90;;;;;;5003867;28;19926;-80
2021/12/30 10:38:18;;;;;;;;;;;10.30;99.90;;;;;;5007098;28;19951;-81
2021/12/30 10:40:46;;;;;;;;;;;10.40;99.90;;;;;;4989320;28;20181;-80
2021/12/30 10:43:17;;;;;;;;;;;10.40;99.90;;;;;;4983916;28;20380;-80
2021/12/30 10:45:46;;;;;;;;;;;10.40;99.90;;;;;;5004435;28;19925;-79
2021/12/30 10:48:12;;;;;;;;;;;10.40;99.90;;;;;;4989415;28;19925;-79
2021/12/30 10:50:41;;;;;;;;;;;10.40;99.90;;;;;;5007929;28;19929;-79
2021/12/30 10:53:08;;;;;;;;;;;10.40;99.90;;;;;;4978847;28;19929;-79
2021/12/30 10:55:35;;;;;;;;;;;10.40;99.90;;;;;;4989148;28;19929;-79
2021/12/30 10:58:21;;;;;;;;;;;10.50;99.90;;;;;;4987550;28;19969;-79
2021/12/30 11:00:49;;;;;;;;;;;10.50;99.90;;;;;;4992961;28;19941;-79
2021/12/30 11:03:19;;;;;;;;;;;10.50;99.90;;;;;;4990263;28;19926;-79
2021/12/30 11:06:00;;;;;;;;;;;10.50;99.90;;;;;;4984489;28;19933;-78
2021/12/30 11:08:29;;;;;;;;;;;10.50;99.90;;;;;;5012054;28;19929;-79
2021/12/30 11:10:56;;;;;;;;;;;10.60;99.90;;;;;;5010866;28;19964;-79
2021/12/30 11:13:23;;;;;;;;;;;10.60;99.90;;;;;;5008456;28;19933;-79
2021/12/30 11:16:01;;;;;;;;;;;10.60;99.90;;;;;;4990835;28;19940;-80
2021/12/30 11:18:40;;;;;;;;;;;10.60;99.90;;;;;;5003868;28;20029;-79
2021/12/30 11:21:07;;;;;;;;;;;10.70;99.90;;;;;;4994710;28;20446;-79
2021/12/30 11:23:35;;;;;;;;;;;10.70;99.90;;;;;;4995751;28;19972;-79
2021/12/30 11:26:02;;;;;;;;;;;10.70;99.90;;;;;;4967451;28;20024;-79
2021/12/30 11:28:29;;;;;;;;;;;10.70;99.90;;;;;;4996590;28;20199;-79
2021/12/30 11:30:56;;;;;;;;;;;10.70;99.90;;;;;;4983755;28;20018;-81
2021/12/30 11:33:23;;;;;;;;;;;10.80;99.90;;;;;;4997066;28;19925;-81
2021/12/30 11:35:50;;;;;;;;;;;10.80;99.90;;;;;;5009885;28;19926;-81
2021/12/30 11:38:17;;;;;;;;;;;10.80;99.90;;;;;;4997371;28;19925;-81
2021/12/30 11:40:47;;;;;;;;;;;10.80;99.90;;;;;;4996147;28;19953;-81
2021/12/30 11:51:40;;;;;;;;;;;10.90;99.90;;;;;;5484943;23;20061;-81
2021/12/30 11:54:22;;;;;;;;;;;11.00;99.90;;;;;;5021798;28;19926;-80
2021/12/30 11:57:04;;;;;;;;;;;11.00;99.90;;;;;;4996818;28;19937;-81
2021/12/30 11:59:39;;;;;;;;;;;11.00;99.90;;;;;;4980711;28;19925;-79
2021/12/30 12:02:20;;;;;;;;;;;11.10;99.90;;;;;;4986909;28;19925;-79
2021/12/30 12:04:47;;;;;;;;;;;11.10;99.90;;;;;;5006815;28;19929;-79
2021/12/30 12:07:15;;;;;;;;;;;11.10;99.90;;;;;;5023835;28;19925;-79
2021/12/30 12:09:43;;;;;;;;;;;11.10;99.90;;;;;;4983435;28;19941;-79
2021/12/30 12:12:11;;;;;;;;;;;11.20;99.90;;;;;;5007877;28;19935;-80
2021/12/30 12:14:42;;;;;;;;;;;11.20;99.90;;;;;;4988321;28;19929;-79
2021/12/30 12:17:10;;;;;;;;;;;11.20;99.90;;;;;;5003293;28;19933;-80
2021/12/30 12:19:41;;;;;;;;;;;11.20;99.90;;;;;;4989078;28;19926;-80
2021/12/30 12:22:10;;;;;;;;;;;11.20;99.90;;;;;;4988769;28;19926;-79
2021/12/30 12:24:39;;;;;;;;;;;11.20;99.90;;;;;;5018914;28;19929;-80
2021/12/30 12:27:08;;;;;;;;;;;11.30;99.90;;;;;;4995682;28;20133;-80
2021/12/30 12:29:38;;;;;;;;;;;11.40;99.90;;;;;;4980101;28;20320;-80
2021/12/30 12:32:10;;;;;;;;;;;11.60;99.90;;;;;;5005551;28;19934;-80
2021/12/30 12:34:39;;;;;;;;;;;11.60;99.90;;;;;;5024981;28;19933;-80
2021/12/30 12:37:26;;;;;;;;;;;11.60;99.90;;;;;;4992170;28;20359;-80
2021/12/30 12:39:57;;;;;;;;;;;11.60;99.90;;;;;;5027401;28;19926;-80
2021/12/30 12:42:41;;;;;;;;;;;11.60;99.90;;;;;;5020248;28;19937;-80
2021/12/30 12:45:18;;;;;;;;;;;11.60;99.90;;;;;;4987582;28;19926;-80
2021/12/30 12:47:46;;;;;;;;;;;11.60;99.90;;;;;;5010043;28;19932;-80
2021/12/30 12:50:14;;;;;;;;;;;11.60;99.90;;;;;;4993264;28;20046;-80
2021/12/30 12:52:42;;;;;;;;;;;11.60;99.90;;;;;;4992387;28;20411;-80
2021/12/30 12:55:12;;;;;;;;;;;11.60;99.90;;;;;;4996390;28;20330;-80
2021/12/30 12:57:41;;;;;;;;;;;11.70;99.90;;;;;;5020103;28;19932;-80
2021/12/30 13:00:09;;;;;;;;;;;11.70;99.90;;;;;;4996483;28;19933;-80
2021/12/30 13:02:36;;;;;;;;;;;11.70;99.90;;;;;;4997389;28;19932;-80
2021/12/30 13:05:07;;;;;;;;;;;11.70;99.90;;;;;;4995003;28;19944;-80
2021/12/30 13:07:39;;;;;;;;;;;11.70;99.90;;;;;;5012061;28;19940;-80
2021/12/30 13:10:06;;;;;;;;;;;11.70;99.90;;;;;;5024134;28;19925;-80
2021/12/30 13:12:37;;;;;;;;;;;11.70;99.90;;;;;;5010174;28;19933;-80
2021/12/30 13:15:12;;;;;;;;;;;11.80;99.90;;;;;;5009961;28;20414;-80
2021/12/30 13:17:41;;;;;;;;;;;11.80;99.90;;;;;;5025506;28;20303;-80
2021/12/30 13:20:08;;;;;;;;;;;11.80;99.90;;;;;;4991061;28;20019;-80
2021/12/30 13:22:35;;;;;;;;;;;11.80;99.90;;;;;;5012588;28;20021;-80
2021/12/30 13:25:04;;;;;;;;;;;11.80;99.90;;;;;;4987672;28;19929;-80
2021/12/30 13:27:33;;;;;;;;;;;11.80;99.90;;;;;;5019778;28;20478;-79
2021/12/30 13:30:05;;;;;;;;;;;11.80;99.90;;;;;;4993820;28;20306;-79
2021/12/30 13:32:32;;;;;;;;;;;11.80;99.90;;;;;;5006398;28;20351;-80
2021/12/30 13:35:02;;;;;;;;;;;11.90;99.90;;;;;;4990711;28;19933;-80
2021/12/30 13:37:31;;;;;;;;;;;11.90;99.90;;;;;;4992509;28;19972;-79
2021/12/30 13:39:58;;;;;;;;;;;11.90;99.90;;;;;;4992991;28;19926;-80
2021/12/30 13:42:28;;;;;;;;;;;11.90;99.90;;;;;;4990085;28;19929;-79
2021/12/30 13:44:57;;;;;;;;;;;11.90;99.90;;;;;;5001312;28;19929;-80
2021/12/30 13:47:26;;;;;;;;;;;11.90;99.90;;;;;;4982347;28;19964;-80
2021/12/30 13:49:55;;;;;;;;;;;11.90;99.90;;;;;;5011251;28;19930;-79
2021/12/30 13:52:23;;;;;;;;;;;11.90;99.90;;;;;;5021835;28;20040;-79
2021/12/30 13:55:09;;;;;;;;;;;11.90;99.90;;;;;;4988626;28;19926;-80
2021/12/30 13:57:36;;;;;;;;;;;11.90;99.90;;;;;;5017838;28;19929;-80
2021/12/30 14:00:05;;;;;;;;;;;11.90;99.90;;;;;;5006219;28;19925;-78
2021/12/30 14:02:34;;;;;;;;;;;12.00;99.90;;;;;;5014500;28;19932;-80
2021/12/30 14:05:05;;;;;;;;;;;12.00;99.90;;;;;;5021806;28;19936;-80
2021/12/30 14:07:33;;;;;;;;;;;12.00;99.90;;;;;;4990504;28;19937;-80
2021/12/30 14:09:59;;;;;;;;;;;12.00;99.90;;;;;;4999142;28;19937;-80
2021/12/30 14:12:26;;;;;;;;;;;12.00;99.90;;;;;;4997060;28;19925;-80
2021/12/30 14:14:53;;;;;;;;;;;12.00;99.90;;;;;;5014526;28;19932;-79
2021/12/30 14:17:20;;;;;;;;;;;12.00;99.90;;;;;;5008328;28;19964;-80
2021/12/30 14:19:52;;;;;;;;;;;12.00;99.90;;;;;;4989753;28;20338;-80
2021/12/30 14:22:19;;;;;;;;;;;12.00;99.90;;;;;;4987543;28;21009;-80
2021/12/30 14:24:46;;;;;;;;;;;12.00;99.90;;;;;;5009240;28;19926;-80
2021/12/30 14:27:14;;;;;;;;;;;12.00;99.90;;;;;;4994198;28;20039;-80
2021/12/30 14:29:41;;;;;;;;;;;12.00;99.90;;;;;;5004708;28;19926;-80
2021/12/30 14:32:11;;;;;;;;;;;12.00;99.90;;;;;;4991155;28;20327;-79
2021/12/30 14:34:39;;;;;;;;;;;12.00;99.90;;;;;;4983516;28;19933;-79
2021/12/30 14:37:12;;;;;;;;;;;12.10;99.90;;;;;;4983064;28;19932;-80
2021/12/30 14:39:42;;;;;;;;;;;12.00;99.90;;;;;;5009899;28;19925;-80
2021/12/30 14:42:14;;;;;;;;;;;12.00;99.90;;;;;;5003235;28;20348;-80